createdAt,value
2022-09-22T00:04:58.512Z,959.41
2022-09-22T00:20:00.357Z,959.31
2022-09-22T00:35:02.193Z,959.25
2022-09-22T00:50:04.037Z,959.2
2022-09-22T01:05:06.074Z,959.25
2022-09-22T01:20:08.240Z,959.24
2022-09-22T01:35:10.425Z,959.26
2022-09-22T01:50:12.494Z,959.4
2022-09-22T02:05:14.605Z,959.42
2022-09-22T02:20:16.799Z,959.59
2022-09-22T02:35:18.727Z,959.73
2022-09-22T02:50:20.747Z,959.86
2022-09-22T03:05:22.633Z,960.14
2022-09-22T03:20:24.497Z,960.22
2022-09-22T03:35:26.349Z,960.51
2022-09-22T03:50:28.183Z,960.41
2022-09-22T04:05:30.025Z,960.66
2022-09-22T04:20:31.857Z,960.81
2022-09-22T04:35:33.679Z,961.07
2022-09-22T04:50:35.541Z,961.17
2022-09-22T05:05:37.415Z,961.12
2022-09-22T05:20:39.254Z,961
2022-09-22T05:35:41.088Z,961.03
2022-09-22T05:50:42.905Z,961.29
2022-09-22T06:05:44.698Z,961.31
2022-09-22T06:20:46.549Z,961.17
2022-09-22T06:35:48.411Z,961.28
2022-09-22T06:50:50.232Z,961.35
2022-09-22T07:05:52.081Z,961.22
2022-09-22T07:20:53.929Z,960.97
2022-09-22T07:35:55.778Z,961.17
2022-09-22T07:50:57.605Z,961.24
2022-09-22T08:06:03.862Z,961.34
2022-09-22T08:21:07.757Z,961.17
2022-09-22T08:36:09.583Z,961.07
2022-09-22T08:51:11.440Z,960.94
2022-09-22T09:06:13.294Z,961
2022-09-22T09:21:15.133Z,960.9
2022-09-22T09:51:18.762Z,960.61
2022-09-22T10:06:20.615Z,960.45
2022-09-22T10:21:22.520Z,960.28
2022-09-22T10:36:24.368Z,960.11
2022-09-22T10:51:26.195Z,959.98
2022-09-22T11:06:28.010Z,959.89
2022-09-22T11:21:29.876Z,959.79
2022-09-22T11:36:31.707Z,959.79
2022-09-22T11:51:33.563Z,959.71
2022-09-22T12:06:35.389Z,959.79
2022-09-22T12:21:37.268Z,959.9
2022-09-22T12:36:39.090Z,959.86
2022-09-22T12:51:40.946Z,959.77
2022-09-22T13:06:42.811Z,959.9
2022-09-22T13:21:44.655Z,959.85
2022-09-22T13:36:46.507Z,959.92
2022-09-22T13:51:48.342Z,960.1
2022-09-22T14:06:50.163Z,960.14
2022-09-22T14:21:52.017Z,960.16
2022-09-22T14:36:53.887Z,960.19
2022-09-22T14:51:55.732Z,960.26
2022-09-22T15:06:57.361Z,960.37
2022-09-22T15:21:59.184Z,960.41
2022-09-22T15:37:01.070Z,960.5
2022-09-22T15:52:03.132Z,960.47
2022-09-22T16:07:04.977Z,960.33
2022-09-22T16:22:06.797Z,960.42
2022-09-22T16:37:08.616Z,960.4
2022-09-22T16:52:10.444Z,960.37
2022-09-22T17:07:12.254Z,960.27
2022-09-22T17:22:14.076Z,960.05
2022-09-22T17:37:15.901Z,960.11
2022-09-22T17:52:17.745Z,960.06
2022-09-22T18:07:19.552Z,959.98
2022-09-22T18:22:21.391Z,959.95
2022-09-22T18:37:23.219Z,959.87
2022-09-22T18:52:25.046Z,959.89
2022-09-22T19:07:26.897Z,959.77
2022-09-22T19:22:28.729Z,959.62
2022-09-22T19:37:30.541Z,959.37
2022-09-22T19:52:32.887Z,959.27
2022-09-22T20:07:34.739Z,959.05
2022-09-22T20:22:36.572Z,958.92
2022-09-22T20:37:38.420Z,958.71
2022-09-22T20:52:40.259Z,958.58
2022-09-22T21:07:42.083Z,958.47
2022-09-22T21:22:43.927Z,958.4
2022-09-22T21:37:45.782Z,958.44
2022-09-22T21:52:47.609Z,958.4
2022-09-22T22:07:49.431Z,958.42
2022-09-22T22:22:51.283Z,958.45
2022-09-22T22:37:53.115Z,958.46
2022-09-22T22:52:54.969Z,958.52
2022-09-22T23:07:56.822Z,958.55
2022-09-22T23:22:58.645Z,958.48
2022-09-22T23:38:00.515Z,958.38
2022-09-22T23:53:02.375Z,958.41
